createdAt,value
2018-11-01T00:00:42.557Z,93.08
2018-11-01T00:01:42.785Z,92.99
2018-11-01T00:02:42.865Z,93.08
2018-11-01T00:03:42.980Z,93.18
2018-11-01T00:04:43.180Z,93.08
2018-11-01T00:05:43.427Z,93.27
2018-11-01T00:06:43.527Z,93.56
2018-11-01T00:07:43.605Z,93.46
2018-11-01T00:08:43.818Z,93.37
2018-11-01T00:09:44.023Z,93.46
2018-11-01T00:10:44.234Z,93.27
2018-11-01T00:11:44.440Z,93.46
2018-11-01T00:12:44.649Z,93.08
2018-11-01T00:13:44.895Z,93.08
2018-11-01T00:14:44.981Z,92.90
2018-11-01T00:15:45.227Z,93.46
2018-11-01T00:16:45.297Z,93.46
2018-11-01T00:17:45.514Z,93.18
2018-11-01T00:18:45.594Z,93.51
2018-11-01T00:19:45.805Z,93.51
2018-11-01T00:20:46.006Z,93.18
2018-11-01T00:21:46.221Z,93.23
2018-11-01T00:22:46.420Z,93.84
2018-11-01T00:23:46.647Z,93.32
2018-11-01T00:24:46.731Z,94.18
2018-11-01T00:25:46.951Z,93.60
2018-11-01T00:26:47.169Z,93.99
2018-11-01T00:27:47.371Z,94.08
2018-11-01T00:28:47.599Z,93.89
2018-11-01T00:29:47.699Z,93.99
2018-11-01T00:30:47.794Z,93.32
2018-11-01T00:31:48.032Z,93.23
2018-11-01T00:32:48.130Z,93.89
2018-11-01T00:33:48.234Z,93.99
2018-11-01T00:34:48.352Z,93.80
2018-11-01T00:35:48.429Z,94.65
2018-11-01T00:36:48.662Z,94.84
2018-11-01T00:37:48.768Z,94.56
2018-11-01T00:38:48.847Z,94.74
2018-11-01T00:39:49.071Z,93.99
2018-11-01T00:40:49.278Z,93.41
2018-11-01T00:41:49.494Z,93.60
2018-11-01T00:42:49.748Z,93.80
2018-11-01T00:43:49.829Z,93.80
2018-11-01T00:44:50.035Z,93.99
2018-11-01T00:45:50.260Z,93.99
2018-11-01T00:46:50.474Z,93.99
2018-11-01T00:47:50.586Z,93.32
2018-11-01T00:48:50.669Z,94.18
2018-11-01T00:49:50.890Z,93.80
2018-11-01T00:50:51.124Z,93.41
2018-11-01T00:51:51.236Z,93.70
2018-11-01T00:52:51.356Z,93.80
2018-11-01T00:53:51.462Z,93.41
2018-11-01T00:54:51.550Z,93.70
2018-11-01T00:55:51.662Z,93.60
2018-11-01T00:56:51.780Z,93.89
2018-11-01T00:57:51.866Z,93.51
2018-11-01T00:58:51.961Z,93.51
2018-11-01T00:59:52.174Z,93.41
2018-11-01T01:00:52.382Z,93.51
2018-11-01T01:01:52.597Z,93.23
2018-11-01T01:02:52.792Z,93.13
2018-11-01T01:03:53.014Z,93.41
2018-11-01T01:04:53.225Z,93.89
2018-11-01T01:05:53.459Z,93.99
2018-11-01T01:06:53.571Z,93.99
2018-11-01T01:07:53.671Z,93.41
2018-11-01T01:08:53.781Z,94.37
2018-11-01T01:10:01.204Z,94.65
2018-11-01T01:11:02.265Z,94.84
2018-11-01T01:12:02.309Z,94.74
2018-11-01T01:12:54.407Z,94.93
2018-11-01T01:13:54.502Z,94.74
2018-11-01T01:15:02.588Z,94.46
2018-11-01T01:16:02.598Z,94.56
2018-11-01T01:17:02.698Z,94.65
2018-11-01T01:17:55.183Z,94.37
2018-11-01T01:18:55.343Z,94.46
2018-11-01T01:19:55.470Z,94.56
2018-11-01T01:20:55.631Z,93.89
2018-11-01T01:21:55.715Z,93.70
2018-11-01T01:22:56.898Z,93.80
2018-11-01T01:23:56.149Z,93.60
2018-11-01T01:24:56.221Z,93.60
2018-11-01T01:25:56.477Z,93.75
2018-11-01T01:26:56.564Z,93.80
2018-11-01T01:27:56.800Z,94.08
2018-11-01T01:28:56.906Z,93.99
2018-11-01T01:29:57.128Z,94.18
2018-11-01T01:30:57.212Z,93.99
2018-11-01T01:31:57.469Z,94.18
2018-11-01T01:32:57.576Z,94.46
2018-11-01T01:33:57.774Z,94.93
2018-11-01T01:34:57.987Z,94.98
2018-11-01T01:35:58.200Z,95.60
2018-11-01T01:36:58.405Z,94.93
2018-11-01T01:37:58.624Z,95.03
2018-11-01T01:38:58.730Z,95.03
2018-11-01T01:39:58.820Z,95.22
2018-11-01T01:40:59.042Z,95.31
2018-11-01T01:41:59.140Z,94.84
2018-11-01T01:42:59.270Z,95.12
2018-11-01T01:43:59.361Z,94.56
2018-11-01T01:44:59.572Z,94.46
2018-11-01T01:45:59.792Z,94.74
2018-11-01T01:47:00.008Z,94.93
2018-11-01T01:48:00.110Z,94.65
2018-11-01T01:49:00.346Z,94.65
2018-11-01T01:50:00.419Z,94.84
2018-11-01T01:51:00.639Z,94.84
2018-11-01T01:52:00.755Z,94.56
2018-11-01T01:53:00.847Z,94.46
2018-11-01T01:54:01.046Z,94.65
2018-11-01T01:55:01.262Z,93.80
2018-11-01T01:56:01.354Z,93.89
2018-11-01T01:57:01.580Z,93.99
2018-11-01T01:58:01.677Z,94.18
2018-11-01T01:59:01.921Z,94.84
2018-11-01T02:00:02.022Z,94.37
2018-11-01T02:01:02.108Z,94.18
2018-11-01T02:02:02.362Z,93.89
2018-11-01T02:03:02.482Z,93.89
2018-11-01T02:04:02.566Z,94.18
2018-11-01T02:05:03.420Z,94.18
2018-11-01T02:06:02.895Z,93.89
2018-11-01T02:07:03.008Z,93.99
2018-11-01T02:08:03.121Z,93.80
2018-11-01T02:09:03.213Z,93.60
2018-11-01T02:10:03.421Z,93.56
2018-11-01T02:11:03.628Z,94.03
2018-11-01T02:12:03.823Z,94.60
2018-11-01T02:13:04.045Z,94.42
2018-11-01T02:14:04.247Z,94.60
2018-11-01T02:15:04.446Z,94.32
2018-11-01T02:16:04.683Z,94.42
2018-11-01T02:17:04.759Z,94.32
2018-11-01T02:18:04.986Z,94.51
2018-11-01T02:19:05.081Z,94.60
2018-11-01T02:20:05.182Z,94.51
2018-11-01T02:21:05.289Z,94.13
2018-11-01T02:22:05.383Z,94.42
2018-11-01T02:23:05.466Z,94.60
2018-11-01T02:24:05.679Z,94.70
2018-11-01T02:25:05.888Z,94.32
2018-11-01T02:26:06.103Z,94.32
2018-11-01T02:27:06.313Z,94.42
2018-11-01T02:28:06.531Z,94.60
2018-11-01T02:29:06.754Z,93.84
2018-11-01T02:30:06.836Z,93.56
2018-11-01T02:31:06.969Z,93.56
2018-11-01T02:32:07.065Z,93.84
2018-11-01T02:33:07.175Z,93.84
2018-11-01T02:34:07.266Z,94.03
2018-11-01T02:35:08.458Z,93.65
2018-11-01T02:36:07.689Z,93.84
2018-11-01T02:37:08.431Z,93.65
2018-11-01T02:38:07.938Z,93.94
2018-11-01T02:39:07.999Z,93.37
2018-11-01T02:40:08.254Z,93.84
2018-11-01T02:41:08.373Z,93.84
2018-11-01T02:42:08.511Z,93.75
2018-11-01T02:43:08.610Z,94.03
2018-11-01T02:44:08.845Z,93.84
2018-11-01T02:45:08.954Z,93.80
2018-11-01T02:46:09.048Z,93.65
2018-11-01T02:47:09.257Z,93.94
2018-11-01T02:48:09.474Z,94.13
2018-11-01T02:49:09.684Z,94.79
2018-11-01T02:50:09.911Z,94.46
2018-11-01T02:51:10.143Z,94.70
2018-11-01T02:52:10.282Z,94.74
2018-11-01T02:53:10.411Z,93.80
2018-11-01T02:54:10.513Z,93.56
2018-11-01T02:55:10.623Z,93.75
2018-11-01T02:56:10.681Z,93.75
2018-11-01T02:57:10.934Z,93.70
2018-11-01T02:58:11.067Z,93.89
2018-11-01T02:59:11.191Z,93.80
2018-11-01T03:00:11.330Z,93.70
2018-11-01T03:01:11.446Z,93.70
2018-11-01T03:02:11.552Z,93.70
2018-11-01T03:03:11.658Z,93.51
2018-11-01T03:04:11.756Z,93.51
2018-11-01T03:05:11.844Z,93.04
2018-11-01T03:06:12.229Z,93.99
2018-11-01T03:07:12.208Z,93.89
2018-11-01T03:08:12.318Z,93.89
2018-11-01T03:09:12.431Z,94.56
2018-11-01T03:10:12.523Z,94.18
2018-11-01T03:11:12.756Z,94.46
2018-11-01T03:12:12.864Z,94.37
2018-11-01T03:13:12.961Z,94.46
2018-11-01T03:14:13.040Z,94.37
2018-11-01T03:15:13.244Z,94.65
2018-11-01T03:16:13.492Z,94.84
2018-11-01T03:17:13.652Z,95.12
2018-11-01T03:18:13.782Z,95.41
2018-11-01T03:19:13.875Z,95.31
2018-11-01T03:20:13.989Z,95.12
2018-11-01T03:21:14.094Z,94.98
2018-11-01T03:22:14.195Z,94.93
2018-11-01T03:23:14.312Z,95.22
2018-11-01T03:24:14.403Z,94.51
2018-11-01T03:25:14.713Z,94.65
2018-11-01T03:26:14.817Z,94.74
2018-11-01T03:27:14.904Z,94.89
2018-11-01T03:28:23.085Z,94.70
2018-11-01T03:29:23.173Z,94.79
2018-11-01T03:30:23.191Z,94.89
2018-11-01T03:31:15.678Z,94.74
2018-11-01T03:32:15.738Z,94.65
2018-11-01T03:33:23.389Z,94.65
2018-11-01T03:34:23.453Z,94.84
2018-11-01T03:35:24.557Z,94.74
2018-11-01T03:36:24.601Z,94.18
2018-11-01T03:37:16.695Z,94.37
2018-11-01T03:38:16.953Z,94.56
2018-11-01T03:39:17.073Z,94.74
2018-11-01T03:40:17.309Z,94.27
2018-11-01T03:41:17.400Z,94.46
2018-11-01T03:42:17.534Z,94.46
2018-11-01T03:43:17.628Z,94.18
2018-11-01T03:44:17.827Z,94.65
2018-11-01T03:45:18.052Z,93.80
2018-11-01T03:46:18.155Z,94.08
2018-11-01T03:47:18.267Z,93.80
2018-11-01T03:48:18.367Z,93.99
2018-11-01T03:49:18.453Z,93.51
2018-11-01T03:50:19.503Z,93.80
2018-11-01T03:51:18.833Z,93.51
2018-11-01T03:52:19.121Z,93.70
2018-11-01T03:53:19.221Z,94.46
2018-11-01T03:54:19.311Z,94.56
2018-11-01T03:55:19.538Z,94.65
2018-11-01T03:56:19.626Z,94.65
2018-11-01T03:57:19.834Z,94.65
2018-11-01T03:58:20.079Z,94.93
2018-11-01T03:59:20.178Z,94.65
2018-11-01T04:00:20.303Z,94.56
2018-11-01T04:01:20.401Z,94.65
2018-11-01T04:02:20.480Z,94.65
2018-11-01T04:03:20.718Z,94.46
2018-11-01T04:04:20.881Z,95.41
2018-11-01T04:05:20.896Z,94.56
2018-11-01T04:06:21.998Z,94.93
2018-11-01T04:07:21.211Z,94.74
2018-11-01T04:08:21.439Z,94.18
2018-11-01T04:09:21.572Z,94.27
2018-11-01T04:10:21.663Z,94.27
2018-11-01T04:11:21.881Z,94.27
2018-11-01T04:12:21.978Z,94.65
2018-11-01T04:13:22.266Z,94.56
2018-11-01T04:14:22.319Z,94.84
2018-11-01T04:15:22.676Z,94.56
2018-11-01T04:16:22.650Z,94.56
2018-11-01T04:17:22.736Z,95.22
2018-11-01T04:18:22.956Z,95.31
2018-11-01T04:19:23.040Z,95.88
2018-11-01T04:20:23.259Z,95.69
2018-11-01T04:21:23.343Z,95.79
2018-11-01T04:22:23.440Z,96.08
2018-11-01T04:23:23.657Z,96.08
2018-11-01T04:24:23.867Z,96.45
2018-11-01T04:25:23.930Z,96.45
2018-11-01T04:26:24.145Z,96.08
2018-11-01T04:27:24.346Z,96.45
2018-11-01T04:28:24.628Z,95.98
2018-11-01T04:29:24.725Z,95.60
2018-11-01T04:30:24.948Z,95.60
2018-11-01T04:31:25.032Z,95.60
2018-11-01T04:32:25.260Z,95.41
2018-11-01T04:33:25.594Z,95.50
2018-11-01T04:34:25.583Z,95.60
2018-11-01T04:35:25.825Z,95.41
2018-11-01T04:36:26.051Z,95.03
2018-11-01T04:37:26.249Z,94.84
2018-11-01T04:38:26.350Z,95.12
2018-11-01T04:39:26.439Z,95.41
2018-11-01T04:40:26.674Z,95.50
2018-11-01T04:41:26.853Z,95.60
2018-11-01T04:42:27.076Z,95.41
2018-11-01T04:43:27.175Z,95.50
2018-11-01T04:44:27.252Z,95.31
2018-11-01T04:45:27.473Z,95.22
2018-11-01T04:46:27.648Z,94.65
2018-11-01T04:47:27.697Z,95.31
2018-11-01T04:48:27.942Z,94.65
2018-11-01T04:49:28.110Z,94.46
2018-11-01T04:50:28.207Z,94.84
2018-11-01T04:51:28.303Z,95.12
2018-11-01T04:52:28.409Z,94.37
2018-11-01T04:53:28.484Z,94.56
2018-11-01T04:54:32.809Z,93.99
2018-11-01T04:55:28.907Z,94.08
2018-11-01T04:56:29.017Z,93.89
2018-11-01T04:57:29.117Z,94.37
2018-11-01T04:58:29.242Z,93.89
2018-11-01T04:59:29.333Z,93.99
2018-11-01T05:00:29.562Z,93.89
2018-11-01T05:01:29.654Z,94.74
2018-11-01T05:02:29.746Z,94.65
2018-11-01T05:03:30.048Z,94.27
2018-11-01T05:04:30.102Z,94.46
2018-11-01T05:05:30.331Z,94.65
2018-11-01T05:06:30.463Z,94.65
2018-11-01T05:07:30.636Z,94.74
2018-11-01T05:08:30.759Z,94.65
2018-11-01T05:09:30.874Z,94.56
2018-11-01T05:10:30.962Z,93.99
2018-11-01T05:11:31.190Z,93.89
2018-11-01T05:12:31.267Z,93.70
2018-11-01T05:13:31.505Z,93.84
2018-11-01T05:14:31.617Z,93.94
2018-11-01T05:15:31.708Z,94.60
2018-11-01T05:16:31.979Z,94.04
2018-11-01T05:17:31.963Z,94.04
2018-11-01T05:18:32.164Z,93.94
2018-11-01T05:19:32.278Z,94.42
2018-11-01T05:20:32.418Z,94.42
2018-11-01T05:21:32.551Z,94.60
2018-11-01T05:22:32.637Z,93.94
2018-11-01T05:23:32.876Z,94.04
2018-11-01T05:24:33.052Z,93.84
2018-11-01T05:25:33.123Z,94.70
2018-11-01T05:26:33.232Z,94.23
2018-11-01T05:27:33.352Z,94.98
2018-11-01T05:28:34.015Z,94.79
2018-11-01T05:29:33.703Z,94.70
2018-11-01T05:30:33.739Z,94.89
2018-11-01T05:31:33.849Z,95.55
2018-11-01T05:32:33.986Z,95.45
2018-11-01T05:33:34.118Z,95.74
2018-11-01T05:34:34.260Z,95.26
2018-11-01T05:35:34.334Z,95.45
2018-11-01T05:36:34.437Z,95.26
2018-11-01T05:37:34.545Z,95.55
2018-11-01T05:38:34.649Z,95.55
2018-11-01T05:39:35.515Z,96.41
2018-11-01T05:40:34.864Z,96.59
2018-11-01T05:41:34.968Z,96.41
2018-11-01T05:42:35.076Z,96.22
2018-11-01T05:43:35.168Z,95.93
2018-11-01T05:44:36.008Z,95.93
2018-11-01T05:45:36.561Z,95.74
2018-11-01T05:46:43.962Z,95.84
2018-11-01T05:47:44.001Z,95.55
2018-11-01T05:48:36.107Z,95.93
2018-11-01T05:49:36.204Z,95.65
2018-11-01T05:50:36.424Z,95.93
2018-11-01T05:51:44.268Z,95.26
2018-11-01T05:52:44.373Z,95.26
2018-11-01T05:53:44.437Z,94.89
2018-11-01T05:54:44.511Z,94.89
2018-11-01T05:55:37.143Z,95.26
2018-11-01T05:56:37.315Z,94.89
2018-11-01T05:57:37.442Z,94.70
2018-11-01T05:58:37.542Z,94.98
2018-11-01T05:59:37.762Z,94.79
2018-11-01T06:00:37.858Z,94.93
2018-11-01T06:01:37.991Z,94.79
2018-11-01T06:02:38.096Z,94.79
2018-11-01T06:03:38.202Z,94.60
2018-11-01T06:04:38.315Z,94.13
2018-11-01T06:05:38.438Z,94.70
2018-11-01T06:06:38.533Z,94.23
2018-11-01T06:07:38.625Z,94.51
2018-11-01T06:08:38.824Z,94.42
2018-11-01T06:09:39.072Z,94.60
2018-11-01T06:10:39.164Z,94.23
2018-11-01T06:11:39.395Z,94.08
2018-11-01T06:12:39.487Z,93.99
2018-11-01T06:13:39.706Z,94.08
2018-11-01T06:14:39.911Z,94.08
2018-11-01T06:15:40.106Z,94.51
2018-11-01T06:16:40.378Z,94.27
2018-11-01T06:17:40.566Z,94.37
2018-11-01T06:18:40.691Z,94.46
2018-11-01T06:19:40.860Z,94.37
2018-11-01T06:20:40.952Z,94.18
2018-11-01T06:21:41.073Z,94.18
2018-11-01T06:22:41.130Z,94.56
2018-11-01T06:23:41.438Z,94.46
2018-11-01T06:24:41.534Z,94.74
2018-11-01T06:25:41.665Z,94.56
2018-11-01T06:26:41.765Z,94.46
2018-11-01T06:27:41.890Z,94.46
2018-11-01T06:28:42.004Z,94.56
2018-11-01T06:29:42.117Z,94.56
2018-11-01T06:30:42.335Z,94.37
2018-11-01T06:31:42.422Z,94.18
2018-11-01T06:32:43.727Z,94.56
2018-11-01T06:33:44.608Z,94.74
2018-11-01T06:34:42.778Z,94.93
2018-11-01T06:35:43.045Z,95.31
2018-11-01T06:36:46.309Z,94.74
2018-11-01T06:37:44.319Z,94.46
2018-11-01T06:38:43.551Z,94.74
2018-11-01T06:39:43.668Z,94.74
2018-11-01T06:40:43.829Z,94.56
2018-11-01T06:41:43.928Z,94.56
2018-11-01T06:42:44.057Z,94.27
2018-11-01T06:43:44.206Z,94.37
2018-11-01T06:44:44.381Z,94.84
2018-11-01T06:45:44.431Z,94.93
2018-11-01T06:46:44.555Z,95.03
2018-11-01T06:47:44.677Z,94.74
2018-11-01T06:48:44.776Z,94.56
2018-11-01T06:49:45.170Z,94.56
2018-11-01T06:50:45.268Z,94.27
2018-11-01T06:51:45.440Z,94.27
2018-11-01T06:52:45.857Z,94.65
2018-11-01T06:53:45.829Z,94.65
2018-11-01T06:54:45.863Z,93.99
2018-11-01T06:55:47.990Z,93.32
2018-11-01T06:56:46.198Z,93.89
2018-11-01T06:57:46.434Z,93.41
2018-11-01T06:58:46.632Z,93.80
2018-11-01T06:59:46.928Z,93.04
2018-11-01T07:00:46.968Z,93.51
2018-11-01T07:01:47.446Z,93.51
2018-11-01T07:02:47.277Z,93.51
2018-11-01T07:03:47.722Z,93.51
2018-11-01T07:04:47.538Z,92.85
2018-11-01T07:05:48.002Z,92.61
2018-11-01T07:06:47.891Z,91.94
2018-11-01T07:07:48.227Z,91.85
2018-11-01T07:08:48.302Z,92.23
2018-11-01T07:09:48.666Z,91.47
2018-11-01T07:10:48.746Z,91.75
2018-11-01T07:11:48.852Z,91.85
2018-11-01T07:12:49.059Z,91.47
2018-11-01T07:13:49.238Z,92.04
2018-11-01T07:14:49.100Z,91.38
2018-11-01T07:15:49.335Z,91.47
2018-11-01T07:16:49.486Z,91.09
2018-11-01T07:17:49.612Z,91.28
2018-11-01T07:18:49.769Z,91.19
2018-11-01T07:19:49.894Z,90.62
2018-11-01T07:20:50.003Z,90.14
2018-11-01T07:21:50.092Z,90.76
2018-11-01T07:22:50.319Z,90.66
2018-11-01T07:23:50.477Z,90.28
2018-11-01T07:24:50.572Z,90.28
2018-11-01T07:25:50.683Z,90.28
2018-11-01T07:26:50.865Z,90.85
2018-11-01T07:27:51.104Z,90.28
2018-11-01T07:28:51.221Z,90.19
2018-11-01T07:29:51.305Z,90.19
2018-11-01T07:30:51.524Z,90.57
2018-11-01T07:31:51.740Z,90.66
2018-11-01T07:32:52.099Z,90.66
2018-11-01T07:33:52.105Z,90.76
2018-11-01T07:34:52.221Z,90.09
2018-11-01T07:35:52.327Z,90.66
2018-11-01T07:36:52.566Z,90.57
2018-11-01T07:37:52.695Z,90.57
2018-11-01T07:38:52.781Z,90.57
2018-11-01T07:39:53.049Z,89.76
2018-11-01T07:40:53.227Z,89.95
2018-11-01T07:41:53.317Z,89.95
2018-11-01T07:42:53.460Z,89.76
2018-11-01T07:43:53.562Z,89.57
2018-11-01T07:44:53.660Z,89.47
2018-11-01T07:45:53.762Z,89.19
2018-11-01T07:46:53.981Z,88.34
2018-11-01T07:47:54.142Z,88.43
2018-11-01T07:48:54.607Z,88.34
2018-11-01T07:49:54.808Z,88.81
2018-11-01T07:50:55.696Z,88.05
2018-11-01T07:51:54.885Z,88.24
2018-11-01T07:52:56.048Z,88.05
2018-11-01T07:53:55.830Z,87.76
2018-11-01T07:54:55.296Z,87.86
2018-11-01T07:55:56.315Z,87.95
2018-11-01T07:56:56.112Z,87.95
2018-11-01T07:57:55.835Z,87.95
2018-11-01T07:58:55.944Z,88.24
2018-11-01T07:59:56.153Z,87.76
2018-11-01T08:00:56.278Z,88.05
2018-11-01T08:01:56.513Z,87.76
2018-11-01T08:02:56.798Z,87.57
2018-11-01T08:03:56.729Z,87.57
2018-11-01T08:04:56.817Z,87.57
2018-11-01T08:05:57.063Z,87.57
2018-11-01T08:06:57.082Z,87.38
2018-11-01T08:07:57.160Z,87.71
2018-11-01T08:08:57.480Z,87.62
2018-11-01T08:10:05.156Z,87.34
2018-11-01T08:11:05.205Z,87.34
2018-11-01T08:11:59.186Z,87.34
2018-11-01T08:12:58.413Z,87.43
2018-11-01T08:13:59.028Z,87.14
2018-11-01T08:14:58.398Z,87.43
2018-11-01T08:15:58.477Z,86.57
2018-11-01T08:16:58.853Z,86.76
2018-11-01T08:17:58.857Z,86.19
2018-11-01T08:18:58.921Z,86.53
2018-11-01T08:19:59.602Z,87.48
2018-11-01T08:20:59.409Z,87.19
2018-11-01T08:22:00.132Z,87.95
2018-11-01T08:22:59.727Z,88.05
2018-11-01T08:24:00.441Z,88.34
2018-11-01T08:25:00.583Z,88.71
2018-11-01T08:26:00.750Z,88.62
2018-11-01T08:27:01.797Z,89.09
2018-11-01T08:28:00.613Z,88.43
2018-11-01T08:29:01.722Z,88.71
2018-11-01T08:30:00.862Z,88.85
2018-11-01T08:31:01.567Z,89.14
2018-11-01T08:32:01.123Z,89.23
2018-11-01T08:33:02.024Z,89.14
2018-11-01T08:34:01.529Z,89.23
2018-11-01T08:35:01.624Z,89.23
2018-11-01T08:36:02.304Z,89.14
2018-11-01T08:37:02.008Z,89.23
2018-11-01T08:38:02.077Z,88.85
2018-11-01T08:39:02.181Z,89.14
2018-11-01T08:40:02.796Z,89.23
2018-11-01T08:41:02.546Z,89.80
2018-11-01T08:42:02.772Z,88.85
2018-11-01T08:43:02.881Z,89.04
2018-11-01T08:44:02.937Z,89.47
2018-11-01T08:45:03.072Z,89.37
2018-11-01T08:46:03.228Z,89.94
2018-11-01T08:47:03.315Z,89.28
2018-11-01T08:48:03.541Z,89.18
2018-11-01T08:49:03.635Z,89.09
2018-11-01T08:50:03.808Z,88.90
2018-11-01T08:51:03.844Z,88.52
2018-11-01T08:52:03.940Z,88.71
2018-11-01T08:53:04.060Z,88.94
2018-11-01T08:54:04.165Z,88.75
2018-11-01T08:55:04.401Z,88.46
2018-11-01T08:56:04.401Z,87.99
2018-11-01T08:57:04.517Z,87.90
2018-11-01T08:58:04.640Z,87.90
2018-11-01T08:59:04.734Z,87.80
2018-11-01T09:00:05.069Z,87.61
2018-11-01T09:01:05.181Z,86.85
2018-11-01T09:02:05.266Z,87.52
2018-11-01T09:03:05.473Z,87.23
2018-11-01T09:04:05.699Z,87.13
2018-11-01T09:05:05.942Z,87.80
2018-11-01T09:06:06.104Z,87.52
2018-11-01T09:07:06.209Z,87.75
2018-11-01T09:08:06.404Z,87.27
2018-11-01T09:09:06.445Z,87.27
2018-11-01T09:10:06.618Z,86.47
2018-11-01T09:11:06.898Z,86.76
2018-11-01T09:12:07.072Z,86.70
2018-11-01T09:13:07.268Z,86.51
2018-11-01T09:14:07.283Z,86.51
2018-11-01T09:15:07.520Z,86.70
2018-11-01T09:16:07.645Z,86.70
2018-11-01T09:17:07.833Z,86.61
2018-11-01T09:18:07.918Z,86.51
2018-11-01T09:19:08.094Z,86.61
2018-11-01T09:20:08.281Z,85.94
2018-11-01T09:21:11.249Z,85.94
2018-11-01T09:22:08.528Z,85.75
2018-11-01T09:23:08.955Z,85.28
2018-11-01T09:24:09.043Z,84.99
2018-11-01T09:25:09.447Z,84.52
2018-11-01T09:26:10.007Z,84.33
2018-11-01T09:27:09.619Z,84.61
2018-11-01T09:28:09.623Z,84.80
2018-11-01T09:29:09.721Z,84.70
2018-11-01T09:30:09.900Z,84.89
2018-11-01T09:31:10.086Z,84.61
2018-11-01T09:32:10.188Z,84.99
2018-11-01T09:33:10.555Z,84.70
2018-11-01T09:34:10.769Z,84.80
2018-11-01T09:35:10.948Z,85.08
2018-11-01T09:36:11.069Z,84.99
2018-11-01T09:37:11.238Z,85.18
2018-11-01T09:38:11.433Z,85.66
2018-11-01T09:39:11.326Z,85.66
2018-11-01T09:40:11.452Z,85.47
2018-11-01T09:41:12.063Z,85.85
2018-11-01T09:42:11.832Z,85.28
2018-11-01T09:43:12.100Z,85.85
2018-11-01T09:44:12.187Z,85.75
2018-11-01T09:45:12.390Z,85.75
2018-11-01T09:46:12.686Z,85.47
2018-11-01T09:47:12.963Z,85.94
2018-11-01T09:48:13.029Z,86.80
2018-11-01T09:49:13.290Z,86.32
2018-11-01T09:50:13.307Z,86.51
2018-11-01T09:51:13.488Z,86.80
2018-11-01T09:52:13.741Z,86.13
2018-11-01T09:53:13.896Z,86.32
2018-11-01T09:54:14.151Z,86.51
2018-11-01T09:55:14.230Z,86.61
2018-11-01T09:56:14.627Z,86.42
2018-11-01T09:57:14.321Z,87.18
2018-11-01T09:58:14.699Z,86.70
2018-11-01T09:59:14.937Z,87.18
2018-11-01T10:00:14.994Z,86.90
2018-11-01T10:01:15.054Z,86.99
2018-11-01T10:02:15.434Z,86.61
2018-11-01T10:03:15.934Z,86.99
2018-11-01T10:04:18.419Z,86.22
2018-11-01T10:05:15.827Z,86.51
2018-11-01T10:06:15.904Z,86.70
2018-11-01T10:07:16.045Z,86.70
2018-11-01T10:08:16.421Z,87.27
2018-11-01T10:09:16.416Z,87.65
2018-11-01T10:10:16.576Z,86.99
2018-11-01T10:11:16.892Z,86.32
2018-11-01T10:12:17.060Z,86.51
2018-11-01T10:13:17.089Z,86.13
2018-11-01T10:14:17.560Z,85.60
2018-11-01T10:15:17.377Z,85.03
2018-11-01T10:16:18.599Z,84.84
2018-11-01T10:17:17.941Z,85.89
2018-11-01T10:18:18.261Z,85.60
2018-11-01T10:19:18.043Z,84.75
2018-11-01T10:20:18.203Z,84.75
2018-11-01T10:21:18.342Z,84.17
2018-11-01T10:22:19.755Z,85.03
2018-11-01T10:23:18.802Z,84.94
2018-11-01T10:24:18.617Z,84.75
2018-11-01T10:25:18.772Z,84.94
2018-11-01T10:26:18.965Z,84.75
2018-11-01T10:27:20.041Z,84.27
2018-11-01T10:28:19.055Z,84.94
2018-11-01T10:29:27.406Z,84.27
2018-11-01T10:30:19.241Z,83.89
2018-11-01T10:31:19.497Z,83.93
2018-11-01T10:32:19.575Z,83.45
2018-11-01T10:33:19.766Z,82.89
2018-11-01T10:34:19.975Z,82.98
2018-11-01T10:35:20.216Z,82.98
2018-11-01T10:36:20.320Z,83.17
2018-11-01T10:37:20.439Z,82.89
2018-11-01T10:38:20.543Z,83.36
2018-11-01T10:39:20.753Z,82.98
2018-11-01T10:40:20.842Z,82.69
2018-11-01T10:41:21.300Z,82.60
2018-11-01T10:42:21.333Z,83.13
2018-11-01T10:43:21.617Z,83.17
2018-11-01T10:44:21.360Z,83.07
2018-11-01T10:45:21.783Z,83.07
2018-11-01T10:46:22.166Z,83.45
2018-11-01T10:47:22.210Z,83.17
2018-11-01T10:48:22.486Z,84.03
2018-11-01T10:49:22.960Z,83.65
2018-11-01T10:50:22.349Z,83.74
2018-11-01T10:51:22.476Z,84.03
2018-11-01T10:52:22.616Z,84.41
2018-11-01T10:53:22.730Z,84.03
2018-11-01T10:54:22.941Z,84.03
2018-11-01T10:55:23.146Z,84.03
2018-11-01T10:56:23.167Z,84.22
2018-11-01T10:57:23.289Z,84.50
2018-11-01T10:58:23.478Z,84.69
2018-11-01T10:59:24.339Z,84.88
2018-11-01T11:00:25.038Z,84.69
2018-11-01T11:01:23.794Z,84.79
2018-11-01T11:02:23.930Z,84.22
2018-11-01T11:03:24.014Z,84.03
2018-11-01T11:04:24.138Z,83.84
2018-11-01T11:05:24.343Z,84.12
2018-11-01T11:06:24.484Z,83.17
2018-11-01T11:07:24.564Z,83.02
2018-11-01T11:08:24.733Z,82.92
2018-11-01T11:09:24.828Z,83.69
2018-11-01T11:10:24.951Z,83.97
2018-11-01T11:11:25.368Z,84.26
2018-11-01T11:12:25.206Z,83.78
2018-11-01T11:13:25.407Z,83.40
2018-11-01T11:14:25.553Z,82.83
2018-11-01T11:15:25.582Z,82.59
2018-11-01T11:16:25.816Z,82.87
2018-11-01T11:17:25.933Z,82.20
2018-11-01T11:18:26.046Z,82.20
2018-11-01T11:19:26.276Z,82.01
2018-11-01T11:20:26.436Z,81.15
2018-11-01T11:21:26.380Z,81.44
2018-11-01T11:22:26.450Z,82.59
2018-11-01T11:23:26.664Z,82.07
2018-11-01T11:24:26.891Z,82.59
2018-11-01T11:25:27.003Z,82.78
2018-11-01T11:26:27.086Z,82.87
2018-11-01T11:27:27.344Z,82.59
2018-11-01T11:28:27.432Z,82.20
2018-11-01T11:29:27.672Z,82.17
2018-11-01T11:30:27.896Z,82.26
2018-11-01T11:31:27.849Z,82.17
2018-11-01T11:32:28.089Z,82.83
2018-11-01T11:33:28.195Z,83.02
2018-11-01T11:34:28.268Z,82.92
2018-11-01T11:35:28.530Z,83.12
2018-11-01T11:36:28.572Z,83.12
2018-11-01T11:37:28.848Z,83.21
2018-11-01T11:38:28.969Z,83.31
2018-11-01T11:39:29.108Z,83.21
2018-11-01T11:40:29.201Z,82.92
2018-11-01T11:41:29.354Z,83.02
2018-11-01T11:42:29.436Z,83.21
2018-11-01T11:43:29.532Z,83.40
2018-11-01T11:44:29.667Z,83.69
2018-11-01T11:45:29.779Z,84.16
2018-11-01T11:46:29.903Z,84.36
2018-11-01T11:47:30.001Z,83.69
2018-11-01T11:48:30.119Z,84.26
2018-11-01T11:49:30.212Z,84.45
2018-11-01T11:50:30.314Z,83.78
2018-11-01T11:51:30.670Z,84.16
2018-11-01T11:52:30.683Z,84.45
2018-11-01T11:53:30.821Z,84.36
2018-11-01T11:54:30.920Z,85.21
2018-11-01T11:55:31.029Z,84.83
2018-11-01T11:56:31.134Z,84.92
2018-11-01T11:57:31.355Z,85.02
2018-11-01T11:58:31.483Z,84.83
2018-11-01T11:59:31.574Z,84.92
2018-11-01T12:00:31.709Z,85.02
2018-11-01T12:01:31.806Z,84.83
2018-11-01T12:02:31.953Z,85.02
2018-11-01T12:03:32.007Z,84.83
2018-11-01T12:04:32.227Z,83.97
2018-11-01T12:05:32.591Z,85.12
2018-11-01T12:06:32.594Z,84.92
2018-11-01T12:07:32.686Z,85.12
2018-11-01T12:08:32.969Z,85.21
2018-11-01T12:09:32.901Z,84.55
2018-11-01T12:10:33.184Z,85.21
2018-11-01T12:11:33.298Z,85.31
2018-11-01T12:12:33.388Z,85.88
2018-11-01T12:13:33.807Z,85.97
2018-11-01T12:14:37.224Z,85.50
2018-11-01T12:15:37.752Z,85.31
2018-11-01T12:16:37.154Z,85.21
2018-11-01T12:17:35.642Z,85.31
2018-11-01T12:18:35.867Z,85.21
2018-11-01T12:19:35.878Z,85.31
2018-11-01T12:20:36.774Z,85.21
2018-11-01T12:21:35.339Z,85.02
2018-11-01T12:22:36.151Z,84.83
2018-11-01T12:23:36.922Z,84.92
2018-11-01T12:24:35.966Z,85.21
2018-11-01T12:25:35.727Z,85.88
2018-11-01T12:26:35.622Z,85.69
2018-11-01T12:27:35.745Z,85.88
2018-11-01T12:28:35.955Z,85.31
2018-11-01T12:29:36.066Z,84.45
2018-11-01T12:30:36.767Z,84.07
2018-11-01T12:31:36.368Z,83.59
2018-11-01T12:32:36.767Z,83.35
2018-11-01T12:33:36.690Z,83.64
2018-11-01T12:34:36.800Z,83.64
2018-11-01T12:35:36.985Z,82.97
2018-11-01T12:36:37.080Z,82.68
2018-11-01T12:37:37.174Z,82.49
2018-11-01T12:38:38.191Z,81.25
2018-11-01T12:39:39.375Z,80.72
2018-11-01T12:40:39.240Z,80.62
2018-11-01T12:41:46.652Z,80.53
2018-11-01T12:42:45.701Z,80.62
2018-11-01T12:43:45.714Z,81.01
2018-11-01T12:44:45.750Z,80.62
2018-11-01T12:45:38.509Z,80.91
2018-11-01T12:46:46.893Z,80.43
2018-11-01T12:47:46.969Z,79.67
2018-11-01T12:48:47.013Z,79.77
2018-11-01T12:49:47.161Z,80.05
2018-11-01T12:50:39.287Z,80.43
2018-11-01T12:51:39.353Z,80.81
2018-11-01T12:52:39.593Z,80.81
2018-11-01T12:53:39.668Z,81.38
2018-11-01T12:54:40.020Z,81.48